sensor_id;sensor_type;location;lat;lon;timestamp;temperature;humidity
5554;DHT22;2800;49.528;8.666;2023-12-20T00:00:16;4.90;99.90
5554;DHT22;2800;49.528;8.666;2023-12-20T00:02:42;4.90;99.90
5554;DHT22;2800;49.528;8.666;2023-12-20T00:05:12;4.90;99.90
5554;DHT22;2800;49.528;8.666;2023-12-20T00:07:38;4.90;99.90
5554;DHT22;2800;49.528;8.666;2023-12-20T00:10:04;4.90;99.90
5554;DHT22;2800;49.528;8.666;2023-12-20T00:12:30;4.90;99.90
5554;DHT22;2800;49.528;8.666;2023-12-20T00:14:55;4.90;99.90
5554;DHT22;2800;49.528;8.666;2023-12-20T00:17:21;4.90;99.90
5554;DHT22;2800;49.528;8.666;2023-12-20T00:19:46;4.90;99.90
5554;DHT22;2800;49.528;8.666;2023-12-20T00:22:12;4.90;99.90
5554;DHT22;2800;49.528;8.666;2023-12-20T00:24:37;4.90;99.90
5554;DHT22;2800;49.528;8.666;2023-12-20T00:27:03;4.90;99.90
5554;DHT22;2800;49.528;8.666;2023-12-20T00:29:28;4.90;99.90
5554;DHT22;2800;49.528;8.666;2023-12-20T00:31:54;4.90;99.90
5554;DHT22;2800;49.528;8.666;2023-12-20T00:34:19;4.90;99.90
5554;DHT22;2800;49.528;8.666;2023-12-20T00:36:45;4.90;99.90
5554;DHT22;2800;49.528;8.666;2023-12-20T00:39:10;4.90;99.90
5554;DHT22;2800;49.528;8.666;2023-12-20T00:41:36;4.90;99.90
5554;DHT22;2800;49.528;8.666;2023-12-20T00:44:01;4.90;99.90
5554;DHT22;2800;49.528;8.666;2023-12-20T00:46:27;4.90;99.90
5554;DHT22;2800;49.528;8.666;2023-12-20T00:48:52;5.00;99.90
5554;DHT22;2800;49.528;8.666;2023-12-20T00:51:18;5.00;99.90
5554;DHT22;2800;49.528;8.666;2023-12-20T00:53:43;5.00;99.90
5554;DHT22;2800;49.528;8.666;2023-12-20T00:56:09;5.00;99.90
5554;DHT22;2800;49.528;8.666;2023-12-20T00:58:34;5.00;99.90
5554;DHT22;2800;49.528;8.666;2023-12-20T01:01:00;5.00;99.90
5554;DHT22;2800;49.528;8.666;2023-12-20T01:03:25;4.90;99.90
5554;DHT22;2800;49.528;8.666;2023-12-20T01:05:51;5.00;99.90
5554;DHT22;2800;49.528;8.666;2023-12-20T01:08:16;5.00;99.90
5554;DHT22;2800;49.528;8.666;2023-12-20T01:10:42;5.00;99.90
5554;DHT22;2800;49.528;8.666;2023-12-20T01:13:07;5.00;99.90
5554;DHT22;2800;49.528;8.666;2023-12-20T01:15:34;5.00;99.90
5554;DHT22;2800;49.528;8.666;2023-12-20T01:17:59;5.00;99.90
5554;DHT22;2800;49.528;8.666;2023-12-20T01:20:25;5.00;99.90
5554;DHT22;2800;49.528;8.666;2023-12-20T01:22:50;5.00;99.90
5554;DHT22;2800;49.528;8.666;2023-12-20T01:25:16;5.00;99.90
5554;DHT22;2800;49.528;8.666;2023-12-20T01:27:41;5.00;99.90
5554;DHT22;2800;49.528;8.666;2023-12-20T01:30:07;5.00;99.90
5554;DHT22;2800;49.528;8.666;2023-12-20T01:32:33;5.00;99.90
5554;DHT22;2800;49.528;8.666;2023-12-20T01:34:58;5.00;99.90
5554;DHT22;2800;49.528;8.666;2023-12-20T01:37:24;5.00;99.90
5554;DHT22;2800;49.528;8.666;2023-12-20T01:39:50;5.00;99.90
5554;DHT22;2800;49.528;8.666;2023-12-20T01:42:16;5.00;99.90
5554;DHT22;2800;49.528;8.666;2023-12-20T01:44:41;5.00;99.90
5554;DHT22;2800;49.528;8.666;2023-12-20T01:47:07;5.00;99.90
5554;DHT22;2800;49.528;8.666;2023-12-20T01:49:33;5.00;99.90
5554;DHT22;2800;49.528;8.666;2023-12-20T01:51:58;5.00;99.90
5554;DHT22;2800;49.528;8.666;2023-12-20T01:54:24;5.00;99.90
5554;DHT22;2800;49.528;8.666;2023-12-20T01:56:50;5.00;99.90
5554;DHT22;2800;49.528;8.666;2023-12-20T01:59:17;5.00;99.90
5554;DHT22;2800;49.528;8.666;2023-12-20T02:01:44;5.00;99.90
5554;DHT22;2800;49.528;8.666;2023-12-20T02:04:09;5.00;99.90
5554;DHT22;2800;49.528;8.666;2023-12-20T02:06:35;5.00;99.90
5554;DHT22;2800;49.528;8.666;2023-12-20T02:09:02;5.00;99.90
5554;DHT22;2800;49.528;8.666;2023-12-20T02:11:27;5.00;99.90
5554;DHT22;2800;49.528;8.666;2023-12-20T02:13:54;5.00;99.90
5554;DHT22;2800;49.528;8.666;2023-12-20T02:16:19;5.00;99.90
5554;DHT22;2800;49.528;8.666;2023-12-20T02:18:45;5.00;99.90
5554;DHT22;2800;49.528;8.666;2023-12-20T02:21:11;5.00;99.90
5554;DHT22;2800;49.528;8.666;2023-12-20T02:23:36;5.00;99.90
5554;DHT22;2800;49.528;8.666;2023-12-20T02:26:03;5.10;99.90
5554;DHT22;2800;49.528;8.666;2023-12-20T02:28:29;5.10;99.90
5554;DHT22;2800;49.528;8.666;2023-12-20T02:30:56;5.00;99.90
5554;DHT22;2800;49.528;8.666;2023-12-20T02:33:21;5.00;99.90
5554;DHT22;2800;49.528;8.666;2023-12-20T02:35:46;5.00;99.90
5554;DHT22;2800;49.528;8.666;2023-12-20T02:38:13;5.00;99.90
5554;DHT22;2800;49.528;8.666;2023-12-20T02:40:38;5.00;99.90
5554;DHT22;2800;49.528;8.666;2023-12-20T02:43:04;5.10;99.90
5554;DHT22;2800;49.528;8.666;2023-12-20T02:45:29;5.00;99.90
5554;DHT22;2800;49.528;8.666;2023-12-20T02:47:55;5.00;99.90
5554;DHT22;2800;49.528;8.666;2023-12-20T02:50:21;5.00;99.90
5554;DHT22;2800;49.528;8.666;2023-12-20T02:52:47;5.00;99.90
5554;DHT22;2800;49.528;8.666;2023-12-20T02:55:12;5.00;99.90
5554;DHT22;2800;49.528;8.666;2023-12-20T02:57:38;5.00;99.90
5554;DHT22;2800;49.528;8.666;2023-12-20T03:00:10;5.00;99.90
5554;DHT22;2800;49.528;8.666;2023-12-20T03:02:36;5.00;99.90
5554;DHT22;2800;49.528;8.666;2023-12-20T03:05:02;5.00;99.90
5554;DHT22;2800;49.528;8.666;2023-12-20T03:07:28;5.00;99.90
5554;DHT22;2800;49.528;8.666;2023-12-20T03:09:53;5.00;99.90
5554;DHT22;2800;49.528;8.666;2023-12-20T03:12:19;5.00;99.90
5554;DHT22;2800;49.528;8.666;2023-12-20T03:14:44;5.00;99.90
5554;DHT22;2800;49.528;8.666;2023-12-20T03:17:10;5.00;99.90
5554;DHT22;2800;49.528;8.666;2023-12-20T03:19:36;5.00;99.90
5554;DHT22;2800;49.528;8.666;2023-12-20T03:22:01;5.00;99.90
5554;DHT22;2800;49.528;8.666;2023-12-20T03:24:27;5.00;99.90
5554;DHT22;2800;49.528;8.666;2023-12-20T03:26:53;5.00;99.90
5554;DHT22;2800;49.528;8.666;2023-12-20T03:29:18;5.00;99.90
5554;DHT22;2800;49.528;8.666;2023-12-20T03:31:44;5.00;99.90
5554;DHT22;2800;49.528;8.666;2023-12-20T03:34:09;5.00;99.90
5554;DHT22;2800;49.528;8.666;2023-12-20T03:36:36;5.00;99.90
5554;DHT22;2800;49.528;8.666;2023-12-20T03:39:01;5.00;99.90
5554;DHT22;2800;49.528;8.666;2023-12-20T03:41:27;5.00;99.90
5554;DHT22;2800;49.528;8.666;2023-12-20T03:43:52;5.00;99.90
5554;DHT22;2800;49.528;8.666;2023-12-20T03:46:18;5.00;99.90
5554;DHT22;2800;49.528;8.666;2023-12-20T03:48:43;5.00;99.90
5554;DHT22;2800;49.528;8.666;2023-12-20T03:51:09;5.00;99.90
5554;DHT22;2800;49.528;8.666;2023-12-20T03:53:34;5.00;99.90
5554;DHT22;2800;49.528;8.666;2023-12-20T03:56:00;5.00;99.90
5554;DHT22;2800;49.528;8.666;2023-12-20T03:58:25;5.00;99.90
5554;DHT22;2800;49.528;8.666;2023-12-20T04:00:51;5.00;99.90
5554;DHT22;2800;49.528;8.666;2023-12-20T04:03:16;5.00;99.90
5554;DHT22;2800;49.528;8.666;2023-12-20T04:05:42;5.00;99.90
5554;DHT22;2800;49.528;8.666;2023-12-20T04:08:09;5.00;99.90
5554;DHT22;2800;49.528;8.666;2023-12-20T04:10:35;5.00;99.90
5554;DHT22;2800;49.528;8.666;2023-12-20T04:13:00;5.00;99.90
5554;DHT22;2800;49.528;8.666;2023-12-20T04:15:26;5.00;99.90
5554;DHT22;2800;49.528;8.666;2023-12-20T04:17:51;5.00;99.90
5554;DHT22;2800;49.528;8.666;2023-12-20T04:20:17;5.10;99.90
5554;DHT22;2800;49.528;8.666;2023-12-20T04:22:42;5.10;99.90
5554;DHT22;2800;49.528;8.666;2023-12-20T04:25:08;5.10;99.90
5554;DHT22;2800;49.528;8.666;2023-12-20T04:27:33;5.10;99.90
5554;DHT22;2800;49.528;8.666;2023-12-20T04:29:59;5.10;99.90
5554;DHT22;2800;49.528;8.666;2023-12-20T04:32:25;5.10;99.90
5554;DHT22;2800;49.528;8.666;2023-12-20T04:34:50;5.10;99.90
5554;DHT22;2800;49.528;8.666;2023-12-20T04:37:16;5.10;99.90
5554;DHT22;2800;49.528;8.666;2023-12-20T04:39:41;5.10;99.90
5554;DHT22;2800;49.528;8.666;2023-12-20T04:42:07;5.10;99.90
5554;DHT22;2800;49.528;8.666;2023-12-20T04:44:32;5.10;99.90
5554;DHT22;2800;49.528;8.666;2023-12-20T04:46:58;5.10;99.90
5554;DHT22;2800;49.528;8.666;2023-12-20T04:49:23;5.10;99.90
5554;DHT22;2800;49.528;8.666;2023-12-20T04:51:49;5.20;99.90
5554;DHT22;2800;49.528;8.666;2023-12-20T04:54:14;5.20;99.90
5554;DHT22;2800;49.528;8.666;2023-12-20T04:56:40;5.10;99.90
5554;DHT22;2800;49.528;8.666;2023-12-20T04:59:05;5.20;99.90
5554;DHT22;2800;49.528;8.666;2023-12-20T05:01:31;5.20;99.90
5554;DHT22;2800;49.528;8.666;2023-12-20T05:03:56;5.20;99.90
5554;DHT22;2800;49.528;8.666;2023-12-20T05:06:22;5.20;99.90
5554;DHT22;2800;49.528;8.666;2023-12-20T05:08:47;5.20;99.90
5554;DHT22;2800;49.528;8.666;2023-12-20T05:11:13;5.20;99.90
5554;DHT22;2800;49.528;8.666;2023-12-20T05:13:40;5.20;99.90
5554;DHT22;2800;49.528;8.666;2023-12-20T05:16:06;5.20;99.90
5554;DHT22;2800;49.528;8.666;2023-12-20T05:18:31;5.20;99.90
5554;DHT22;2800;49.528;8.666;2023-12-20T05:20:57;5.20;99.90
5554;DHT22;2800;49.528;8.666;2023-12-20T05:23:22;5.20;99.90
5554;DHT22;2800;49.528;8.666;2023-12-20T05:25:48;5.20;99.90
5554;DHT22;2800;49.528;8.666;2023-12-20T05:28:14;5.20;99.90
5554;DHT22;2800;49.528;8.666;2023-12-20T05:30:40;5.30;99.90
5554;DHT22;2800;49.528;8.666;2023-12-20T05:33:05;5.30;99.90
5554;DHT22;2800;49.528;8.666;2023-12-20T05:35:31;5.30;99.90
5554;DHT22;2800;49.528;8.666;2023-12-20T05:37:56;5.30;99.90
5554;DHT22;2800;49.528;8.666;2023-12-20T05:40:22;5.30;99.90
5554;DHT22;2800;49.528;8.666;2023-12-20T05:42:47;5.30;99.90
5554;DHT22;2800;49.528;8.666;2023-12-20T05:45:14;5.30;99.90
5554;DHT22;2800;49.528;8.666;2023-12-20T05:47:40;5.30;99.90
5554;DHT22;2800;49.528;8.666;2023-12-20T05:50:06;5.30;99.90
5554;DHT22;2800;49.528;8.666;2023-12-20T05:52:31;5.30;99.90
5554;DHT22;2800;49.528;8.666;2023-12-20T05:54:57;5.30;99.90
5554;DHT22;2800;49.528;8.666;2023-12-20T05:57:26;5.30;99.90
5554;DHT22;2800;49.528;8.666;2023-12-20T05:59:52;5.30;99.90
5554;DHT22;2800;49.528;8.666;2023-12-20T06:02:17;5.30;99.90
5554;DHT22;2800;49.528;8.666;2023-12-20T06:04:43;5.30;99.90
5554;DHT22;2800;49.528;8.666;2023-12-20T06:07:11;5.30;99.90
5554;DHT22;2800;49.528;8.666;2023-12-20T06:09:37;5.30;99.90
5554;DHT22;2800;49.528;8.666;2023-12-20T06:12:03;5.30;99.90
5554;DHT22;2800;49.528;8.666;2023-12-20T06:14:28;5.30;99.90
5554;DHT22;2800;49.528;8.666;2023-12-20T06:16:56;5.30;99.90
5554;DHT22;2800;49.528;8.666;2023-12-20T06:19:21;5.30;99.90
5554;DHT22;2800;49.528;8.666;2023-12-20T06:21:47;5.30;99.90
5554;DHT22;2800;49.528;8.666;2023-12-20T06:24:13;5.40;99.90
5554;DHT22;2800;49.528;8.666;2023-12-20T06:26:38;5.40;99.90
5554;DHT22;2800;49.528;8.666;2023-12-20T06:29:04;5.40;99.90
5554;DHT22;2800;49.528;8.666;2023-12-20T06:31:29;5.40;99.90
5554;DHT22;2800;49.528;8.666;2023-12-20T06:33:55;5.30;99.90
5554;DHT22;2800;49.528;8.666;2023-12-20T06:36:23;5.30;99.90
5554;DHT22;2800;49.528;8.666;2023-12-20T06:38:49;5.30;99.90
5554;DHT22;2800;49.528;8.666;2023-12-20T06:41:15;5.30;99.90
5554;DHT22;2800;49.528;8.666;2023-12-20T06:43:42;5.30;99.90
5554;DHT22;2800;49.528;8.666;2023-12-20T06:46:07;5.30;99.90
5554;DHT22;2800;49.528;8.666;2023-12-20T06:48:34;5.40;99.90
5554;DHT22;2800;49.528;8.666;2023-12-20T06:51:00;5.30;99.90
5554;DHT22;2800;49.528;8.666;2023-12-20T06:53:27;5.30;99.90
5554;DHT22;2800;49.528;8.666;2023-12-20T06:55:53;5.30;99.90
5554;DHT22;2800;49.528;8.666;2023-12-20T06:58:18;5.30;99.90
5554;DHT22;2800;49.528;8.666;2023-12-20T07:00:44;5.30;99.90
5554;DHT22;2800;49.528;8.666;2023-12-20T07:03:09;5.40;99.90
5554;DHT22;2800;49.528;8.666;2023-12-20T07:05:35;5.40;99.90
5554;DHT22;2800;49.528;8.666;2023-12-20T07:08:00;5.30;99.90
5554;DHT22;2800;49.528;8.666;2023-12-20T07:10:26;5.30;99.90
5554;DHT22;2800;49.528;8.666;2023-12-20T07:12:51;5.30;99.90
5554;DHT22;2800;49.528;8.666;2023-12-20T07:15:17;5.20;99.90
5554;DHT22;2800;49.528;8.666;2023-12-20T07:17:43;5.20;99.90
5554;DHT22;2800;49.528;8.666;2023-12-20T07:20:09;5.10;99.90
5554;DHT22;2800;49.528;8.666;2023-12-20T07:22:36;5.10;99.90
5554;DHT22;2800;49.528;8.666;2023-12-20T07:25:02;5.10;99.90
5554;DHT22;2800;49.528;8.666;2023-12-20T07:27:27;5.00;99.90
5554;DHT22;2800;49.528;8.666;2023-12-20T07:29:53;4.90;99.90
5554;DHT22;2800;49.528;8.666;2023-12-20T07:32:18;4.90;99.90
5554;DHT22;2800;49.528;8.666;2023-12-20T07:34:44;4.80;99.90
5554;DHT22;2800;49.528;8.666;2023-12-20T07:37:10;4.80;99.90
5554;DHT22;2800;49.528;8.666;2023-12-20T07:39:37;4.80;99.90
5554;DHT22;2800;49.528;8.666;2023-12-20T07:42:03;4.80;99.90
5554;DHT22;2800;49.528;8.666;2023-12-20T07:44:28;4.90;99.90
5554;DHT22;2800;49.528;8.666;2023-12-20T07:46:54;4.90;99.90
5554;DHT22;2800;49.528;8.666;2023-12-20T07:49:19;4.90;99.90
5554;DHT22;2800;49.528;8.666;2023-12-20T07:51:45;4.90;99.90
5554;DHT22;2800;49.528;8.666;2023-12-20T07:54:10;4.90;99.90
5554;DHT22;2800;49.528;8.666;2023-12-20T07:56:36;4.90;99.90
5554;DHT22;2800;49.528;8.666;2023-12-20T07:59:01;4.90;99.90
5554;DHT22;2800;49.528;8.666;2023-12-20T08:01:27;4.80;99.90
5554;DHT22;2800;49.528;8.666;2023-12-20T08:03:52;4.90;99.90
5554;DHT22;2800;49.528;8.666;2023-12-20T08:06:18;4.90;99.90
5554;DHT22;2800;49.528;8.666;2023-12-20T08:08:44;4.90;99.90
5554;DHT22;2800;49.528;8.666;2023-12-20T08:11:09;5.00;99.90
5554;DHT22;2800;49.528;8.666;2023-12-20T08:13:34;5.00;99.90
5554;DHT22;2800;49.528;8.666;2023-12-20T08:16:00;5.10;99.90
5554;DHT22;2800;49.528;8.666;2023-12-20T08:18:28;5.10;99.90
5554;DHT22;2800;49.528;8.666;2023-12-20T08:20:54;5.20;99.90
5554;DHT22;2800;49.528;8.666;2023-12-20T08:23:19;5.20;99.90
5554;DHT22;2800;49.528;8.666;2023-12-20T08:25:46;5.20;99.90
5554;DHT22;2800;49.528;8.666;2023-12-20T08:28:12;5.20;99.90
5554;DHT22;2800;49.528;8.666;2023-12-20T08:30:37;5.20;99.90
5554;DHT22;2800;49.528;8.666;2023-12-20T08:33:03;5.30;99.90
5554;DHT22;2800;49.528;8.666;2023-12-20T08:35:28;5.30;99.90
5554;DHT22;2800;49.528;8.666;2023-12-20T08:37:54;5.30;99.90
5554;DHT22;2800;49.528;8.666;2023-12-20T08:40:19;5.40;99.90
5554;DHT22;2800;49.528;8.666;2023-12-20T08:42:45;5.40;99.90
5554;DHT22;2800;49.528;8.666;2023-12-20T08:45:11;5.30;99.90
5554;DHT22;2800;49.528;8.666;2023-12-20T08:47:36;5.30;99.90
5554;DHT22;2800;49.528;8.666;2023-12-20T08:50:03;5.30;99.90
5554;DHT22;2800;49.528;8.666;2023-12-20T08:52:28;5.30;99.90
5554;DHT22;2800;49.528;8.666;2023-12-20T08:54:54;5.30;99.90
5554;DHT22;2800;49.528;8.666;2023-12-20T08:57:20;5.30;99.90
5554;DHT22;2800;49.528;8.666;2023-12-20T08:59:47;5.30;99.90
5554;DHT22;2800;49.528;8.666;2023-12-20T09:02:13;5.30;99.90
5554;DHT22;2800;49.528;8.666;2023-12-20T09:04:39;5.30;99.90
5554;DHT22;2800;49.528;8.666;2023-12-20T09:07:04;5.60;99.90
5554;DHT22;2800;49.528;8.666;2023-12-20T09:09:30;5.90;99.90
5554;DHT22;2800;49.528;8.666;2023-12-20T09:11:57;6.00;99.90
5554;DHT22;2800;49.528;8.666;2023-12-20T09:14:23;5.80;99.90
5554;DHT22;2800;49.528;8.666;2023-12-20T09:16:48;5.80;99.90
5554;DHT22;2800;49.528;8.666;2023-12-20T09:19:16;5.70;99.90
5554;DHT22;2800;49.528;8.666;2023-12-20T09:21:42;5.70;99.90
5554;DHT22;2800;49.528;8.666;2023-12-20T09:24:08;5.70;99.90
5554;DHT22;2800;49.528;8.666;2023-12-20T09:26:34;5.80;99.90
5554;DHT22;2800;49.528;8.666;2023-12-20T09:28:59;5.80;99.90
5554;DHT22;2800;49.528;8.666;2023-12-20T09:31:25;5.80;99.90
5554;DHT22;2800;49.528;8.666;2023-12-20T09:33:51;5.80;99.90
5554;DHT22;2800;49.528;8.666;2023-12-20T09:36:16;5.80;99.90
5554;DHT22;2800;49.528;8.666;2023-12-20T09:38:42;5.80;99.90
5554;DHT22;2800;49.528;8.666;2023-12-20T09:41:07;5.80;99.90
5554;DHT22;2800;49.528;8.666;2023-12-20T09:43:36;5.80;99.90
5554;DHT22;2800;49.528;8.666;2023-12-20T09:46:05;5.80;99.90
5554;DHT22;2800;49.528;8.666;2023-12-20T09:48:33;5.80;99.90
5554;DHT22;2800;49.528;8.666;2023-12-20T09:50:58;5.80;99.90
5554;DHT22;2800;49.528;8.666;2023-12-20T09:53:25;5.80;99.90
5554;DHT22;2800;49.528;8.666;2023-12-20T09:55:58;5.90;99.90
5554;DHT22;2800;49.528;8.666;2023-12-20T09:58:27;5.90;99.90
5554;DHT22;2800;49.528;8.666;2023-12-20T10:00:53;5.90;99.90
5554;DHT22;2800;49.528;8.666;2023-12-20T10:03:24;5.90;99.90
5554;DHT22;2800;49.528;8.666;2023-12-20T10:05:52;5.90;99.90
5554;DHT22;2800;49.528;8.666;2023-12-20T10:08:21;5.90;99.90
5554;DHT22;2800;49.528;8.666;2023-12-20T10:10:47;5.90;99.90
5554;DHT22;2800;49.528;8.666;2023-12-20T10:13:13;5.90;99.90
5554;DHT22;2800;49.528;8.666;2023-12-20T10:15:38;5.90;99.90
5554;DHT22;2800;49.528;8.666;2023-12-20T10:18:05;5.90;99.90
5554;DHT22;2800;49.528;8.666;2023-12-20T10:20:31;5.90;99.90
5554;DHT22;2800;49.528;8.666;2023-12-20T10:22:57;5.90;99.90
5554;DHT22;2800;49.528;8.666;2023-12-20T10:25:23;6.00;99.90
5554;DHT22;2800;49.528;8.666;2023-12-20T10:27:51;6.00;99.90
5554;DHT22;2800;49.528;8.666;2023-12-20T10:30:33;6.00;99.90
5554;DHT22;2800;49.528;8.666;2023-12-20T10:32:58;6.00;99.90
5554;DHT22;2800;49.528;8.666;2023-12-20T10:35:24;6.00;99.90
5554;DHT22;2800;49.528;8.666;2023-12-20T10:37:51;6.10;99.90
5554;DHT22;2800;49.528;8.666;2023-12-20T10:40:17;6.10;99.90
5554;DHT22;2800;49.528;8.666;2023-12-20T10:42:43;6.10;99.90
5554;DHT22;2800;49.528;8.666;2023-12-20T10:45:09;6.20;99.90
5554;DHT22;2800;49.528;8.666;2023-12-20T10:47:36;6.20;99.90
5554;DHT22;2800;49.528;8.666;2023-12-20T10:50:05;6.20;99.90
5554;DHT22;2800;49.528;8.666;2023-12-20T10:52:32;6.20;99.90
5554;DHT22;2800;49.528;8.666;2023-12-20T10:54:59;6.30;99.90
5554;DHT22;2800;49.528;8.666;2023-12-20T10:57:27;6.30;99.90
5554;DHT22;2800;49.528;8.666;2023-12-20T10:59:54;6.30;99.90
5554;DHT22;2800;49.528;8.666;2023-12-20T11:02:20;6.40;99.90
5554;DHT22;2800;49.528;8.666;2023-12-20T11:04:57;6.40;99.90
5554;DHT22;2800;49.528;8.666;2023-12-20T11:07:31;6.40;99.90
5554;DHT22;2800;49.528;8.666;2023-12-20T11:10:00;6.40;99.90
5554;DHT22;2800;49.528;8.666;2023-12-20T11:12:37;6.40;99.90
5554;DHT22;2800;49.528;8.666;2023-12-20T11:15:06;6.40;99.90
5554;DHT22;2800;49.528;8.666;2023-12-20T11:17:33;6.40;99.90
5554;DHT22;2800;49.528;8.666;2023-12-20T11:22:25;6.40;99.90
5554;DHT22;2800;49.528;8.666;2023-12-20T11:24:52;6.40;99.90
5554;DHT22;2800;49.528;8.666;2023-12-20T11:27:19;6.40;99.90
5554;DHT22;2800;49.528;8.666;2023-12-20T11:29:52;6.40;99.90
5554;DHT22;2800;49.528;8.666;2023-12-20T11:37:36;6.40;99.90
5554;DHT22;2800;49.528;8.666;2023-12-20T11:40:07;6.40;99.90
5554;DHT22;2800;49.528;8.666;2023-12-20T11:42:41;6.40;99.90
5554;DHT22;2800;49.528;8.666;2023-12-20T11:45:25;6.40;99.90
5554;DHT22;2800;49.528;8.666;2023-12-20T11:47:51;6.40;99.90
5554;DHT22;2800;49.528;8.666;2023-12-20T11:50:19;6.40;99.90
5554;DHT22;2800;49.528;8.666;2023-12-20T11:52:45;6.40;99.90
5554;DHT22;2800;49.528;8.666;2023-12-20T11:55:10;6.40;99.90
5554;DHT22;2800;49.528;8.666;2023-12-20T11:57:37;6.40;99.90
5554;DHT22;2800;49.528;8.666;2023-12-20T12:00:06;6.40;99.90
5554;DHT22;2800;49.528;8.666;2023-12-20T12:02:32;6.40;99.90
5554;DHT22;2800;49.528;8.666;2023-12-20T12:04:57;6.40;99.90
5554;DHT22;2800;49.528;8.666;2023-12-20T12:07:24;6.40;99.90
5554;DHT22;2800;49.528;8.666;2023-12-20T12:09:50;6.40;99.90
5554;DHT22;2800;49.528;8.666;2023-12-20T12:12:16;6.40;99.90
5554;DHT22;2800;49.528;8.666;2023-12-20T12:14:44;6.40;99.90
5554;DHT22;2800;49.528;8.666;2023-12-20T12:17:11;6.40;99.90
5554;DHT22;2800;49.528;8.666;2023-12-20T12:19:37;6.30;99.90
5554;DHT22;2800;49.528;8.666;2023-12-20T12:22:07;6.30;99.90
5554;DHT22;2800;49.528;8.666;2023-12-20T12:24:34;6.30;99.90
5554;DHT22;2800;49.528;8.666;2023-12-20T12:27:00;6.30;99.90
5554;DHT22;2800;49.528;8.666;2023-12-20T12:29:25;6.30;99.90
5554;DHT22;2800;49.528;8.666;2023-12-20T12:31:51;6.20;99.90
5554;DHT22;2800;49.528;8.666;2023-12-20T12:34:17;6.20;99.90
5554;DHT22;2800;49.528;8.666;2023-12-20T12:36:43;6.20;99.90
5554;DHT22;2800;49.528;8.666;2023-12-20T12:39:12;6.20;99.90
5554;DHT22;2800;49.528;8.666;2023-12-20T12:41:38;6.20;99.90
5554;DHT22;2800;49.528;8.666;2023-12-20T12:44:03;6.20;99.90
5554;DHT22;2800;49.528;8.666;2023-12-20T12:46:29;6.20;99.90
5554;DHT22;2800;49.528;8.666;2023-12-20T12:48:54;6.10;99.90
5554;DHT22;2800;49.528;8.666;2023-12-20T12:51:20;6.10;99.90
5554;DHT22;2800;49.528;8.666;2023-12-20T12:53:45;6.10;99.90
5554;DHT22;2800;49.528;8.666;2023-12-20T12:56:12;6.10;99.90
5554;DHT22;2800;49.528;8.666;2023-12-20T12:58:38;6.10;99.90
5554;DHT22;2800;49.528;8.666;2023-12-20T13:01:04;6.10;99.90
5554;DHT22;2800;49.528;8.666;2023-12-20T13:03:29;6.10;99.90
5554;DHT22;2800;49.528;8.666;2023-12-20T13:05:55;6.10;99.90
5554;DHT22;2800;49.528;8.666;2023-12-20T13:08:21;6.10;99.90
5554;DHT22;2800;49.528;8.666;2023-12-20T13:10:46;6.10;99.90
5554;DHT22;2800;49.528;8.666;2023-12-20T13:13:12;6.10;99.90
5554;DHT22;2800;49.528;8.666;2023-12-20T13:15:37;6.00;99.90
5554;DHT22;2800;49.528;8.666;2023-12-20T13:18:03;6.00;99.90
5554;DHT22;2800;49.528;8.666;2023-12-20T13:20:30;6.00;99.90
5554;DHT22;2800;49.528;8.666;2023-12-20T13:22:55;6.00;99.90
5554;DHT22;2800;49.528;8.666;2023-12-20T13:25:20;6.00;99.90
5554;DHT22;2800;49.528;8.666;2023-12-20T13:27:46;6.10;99.90
5554;DHT22;2800;49.528;8.666;2023-12-20T13:30:12;6.20;99.90
5554;DHT22;2800;49.528;8.666;2023-12-20T13:32:37;6.10;99.90
5554;DHT22;2800;49.528;8.666;2023-12-20T13:35:03;6.10;99.90
5554;DHT22;2800;49.528;8.666;2023-12-20T13:37:29;6.20;99.90
5554;DHT22;2800;49.528;8.666;2023-12-20T13:39:55;6.20;99.90
5554;DHT22;2800;49.528;8.666;2023-12-20T13:42:20;6.20;99.90
5554;DHT22;2800;49.528;8.666;2023-12-20T13:44:46;6.20;99.90
5554;DHT22;2800;49.528;8.666;2023-12-20T13:47:12;6.20;99.90
5554;DHT22;2800;49.528;8.666;2023-12-20T13:49:37;6.10;99.90
5554;DHT22;2800;49.528;8.666;2023-12-20T13:52:03;6.10;99.90
5554;DHT22;2800;49.528;8.666;2023-12-20T13:54:29;6.10;99.90
5554;DHT22;2800;49.528;8.666;2023-12-20T13:56:55;6.10;99.90
5554;DHT22;2800;49.528;8.666;2023-12-20T13:59:20;6.10;99.90
5554;DHT22;2800;49.528;8.666;2023-12-20T14:01:46;6.10;99.90
5554;DHT22;2800;49.528;8.666;2023-12-20T14:04:11;6.10;99.90
5554;DHT22;2800;49.528;8.666;2023-12-20T14:06:37;6.10;99.90
5554;DHT22;2800;49.528;8.666;2023-12-20T14:09:02;6.10;99.90
5554;DHT22;2800;49.528;8.666;2023-12-20T14:11:28;6.10;99.90
5554;DHT22;2800;49.528;8.666;2023-12-20T14:13:54;6.10;99.90
5554;DHT22;2800;49.528;8.666;2023-12-20T14:16:24;6.10;99.90
5554;DHT22;2800;49.528;8.666;2023-12-20T14:18:50;6.10;99.90
5554;DHT22;2800;49.528;8.666;2023-12-20T14:21:17;6.10;99.90
5554;DHT22;2800;49.528;8.666;2023-12-20T14:23:43;6.10;99.90
5554;DHT22;2800;49.528;8.666;2023-12-20T14:26:08;6.10;99.90
5554;DHT22;2800;49.528;8.666;2023-12-20T14:28:40;6.10;99.90
5554;DHT22;2800;49.528;8.666;2023-12-20T14:31:06;6.10;99.90
5554;DHT22;2800;49.528;8.666;2023-12-20T14:33:32;6.10;99.90
5554;DHT22;2800;49.528;8.666;2023-12-20T14:35:57;6.10;99.90
5554;DHT22;2800;49.528;8.666;2023-12-20T14:38:23;4.20;99.90
5554;DHT22;2800;49.528;8.666;2023-12-20T14:40:50;6.10;99.90
5554;DHT22;2800;49.528;8.666;2023-12-20T14:43:16;6.10;99.90
5554;DHT22;2800;49.528;8.666;2023-12-20T14:45:42;6.10;99.90
5554;DHT22;2800;49.528;8.666;2023-12-20T14:48:07;6.10;99.90
5554;DHT22;2800;49.528;8.666;2023-12-20T14:50:33;6.10;99.90
5554;DHT22;2800;49.528;8.666;2023-12-20T14:52:58;6.10;99.90
5554;DHT22;2800;49.528;8.666;2023-12-20T14:55:25;6.10;99.90
5554;DHT22;2800;49.528;8.666;2023-12-20T14:57:52;6.10;99.90
5554;DHT22;2800;49.528;8.666;2023-12-20T15:00:18;6.10;99.90
5554;DHT22;2800;49.528;8.666;2023-12-20T15:02:45;6.10;99.90
5554;DHT22;2800;49.528;8.666;2023-12-20T15:05:11;6.10;99.90
5554;DHT22;2800;49.528;8.666;2023-12-20T15:07:36;6.10;99.90
5554;DHT22;2800;49.528;8.666;2023-12-20T15:10:03;6.10;99.90
5554;DHT22;2800;49.528;8.666;2023-12-20T15:12:29;6.10;99.90
5554;DHT22;2800;49.528;8.666;2023-12-20T15:14:54;6.10;99.90
5554;DHT22;2800;49.528;8.666;2023-12-20T15:17:19;6.10;99.90
5554;DHT22;2800;49.528;8.666;2023-12-20T15:19:45;6.10;99.90
5554;DHT22;2800;49.528;8.666;2023-12-20T15:22:10;6.10;99.90
5554;DHT22;2800;49.528;8.666;2023-12-20T15:24:39;6.10;99.90
5554;DHT22;2800;49.528;8.666;2023-12-20T15:27:06;6.00;99.90
5554;DHT22;2800;49.528;8.666;2023-12-20T15:29:32;6.00;99.90
5554;DHT22;2800;49.528;8.666;2023-12-20T15:31:57;6.00;99.90
5554;DHT22;2800;49.528;8.666;2023-12-20T15:34:23;6.00;99.90
5554;DHT22;2800;49.528;8.666;2023-12-20T15:36:48;6.00;99.90
5554;DHT22;2800;49.528;8.666;2023-12-20T15:39:14;6.00;99.90
5554;DHT22;2800;49.528;8.666;2023-12-20T15:41:40;6.00;99.90
5554;DHT22;2800;49.528;8.666;2023-12-20T15:44:05;6.00;99.90
5554;DHT22;2800;49.528;8.666;2023-12-20T15:46:31;5.90;99.90
5554;DHT22;2800;49.528;8.666;2023-12-20T15:48:57;5.90;99.90
5554;DHT22;2800;49.528;8.666;2023-12-20T15:51:23;5.90;99.90
5554;DHT22;2800;49.528;8.666;2023-12-20T15:53:49;5.90;99.90
5554;DHT22;2800;49.528;8.666;2023-12-20T15:56:15;5.90;99.90
5554;DHT22;2800;49.528;8.666;2023-12-20T15:58:41;5.90;99.90
5554;DHT22;2800;49.528;8.666;2023-12-20T16:01:06;5.90;99.90
5554;DHT22;2800;49.528;8.666;2023-12-20T16:03:32;5.90;99.90
5554;DHT22;2800;49.528;8.666;2023-12-20T16:05:57;5.90;99.90
5554;DHT22;2800;49.528;8.666;2023-12-20T16:08:24;5.90;99.90
5554;DHT22;2800;49.528;8.666;2023-12-20T16:10:49;5.90;99.90
5554;DHT22;2800;49.528;8.666;2023-12-20T16:13:15;5.90;99.90
5554;DHT22;2800;49.528;8.666;2023-12-20T16:15:41;5.90;99.90